Airfield :
LOGIN :

Register | Disclaimer

   EN    FR    IT 

 










Legend :    VFR   Marginal VFR   IFR   Intensive IFR   Very Intensive IFR
Visi :
Ceiling :
>= 8 km
>= 3000ft
5 to 8 km
1000 to 3000 ft
1500m to 5 km
500 to 1000 ft
800 to 1500m
200 to 500 ft
< 800m
< 200 ft
Symbols :   Thunderstorms  Fog  Heavy snow  Heavy precipitations  Wind > 20 kt
SIGMETs :     Misc.  Thunderstorms  Icing  Turbulence  Mountain Waves  Volcanic Ashes







- Airport Elevation : 296 ft
- IATA code : GKE


ETNG - Geilenkirchen

CURRENT METAR :
  • 192150Z 26002KT 9999 OVC011 13/12 Q1006

EXPIRED METARs :
  • 192117Z 26001KT 9999 BKN013 13/12 Q1006
  • 192050Z 24003KT CAVOK 13/13 Q1006
  • 191950Z 23001KT CAVOK 14/13 Q1006

Expired Forecast.
No reported NOTAMs for that airfield.
2 SIGMETs reported for the Langen FIR (EDGG) :
 
Embedded thunderstorms
EDGG SIGMET 2 VALID 191935/192200 EDZF
EDGG LANGEN FIR EMBD TS OBS WI N4842 E00930 - N4733 E00935 - N4746 E00852 - N4732 E00728 - N4832 E00740 - N4842 E00930 TOP FL330 MOV WSW WKN=
Embedded thunderstorms
EDGG SIGMET 1 VALID 192200/200100 EDZF
EDGG LANGEN FIR EMBD TS OBS WI N4908 E00939 - N4804 E00932 - N4734 E00741 - N4749 E00727 - N4858 E00759 - N4908 E00939 TOP FL320 MOV WSW WKN=



MET'MAP, your aeronautical weather chart ! - Copyright ORBIFLY December 2007 - Disclaimer

ORBIFLY MET'MAP TEAM :

Programming & Development : Alexandra Zaïnal
Concept & Development : Baudouin d'Aumeries
Co-Development & Prog : Marc-Olivier Méhu
Technical & hardware support : Manuel Goepfert

Contact : metmap@orbifly.com




SOURCES & CREDITS :

   NOAA